Terminal Aerodrome Forecast
Issued by NWS

Home | Current Version | Previous Version | Text Only | Print | Product List | Glossary On
Versions: 1 2 3 4 5 6 7 8 9 10 11 12 13 14 15 16 17 18 19 20 21 22 23 24 25 26 27 28 29 30 31 32 33 34 35 36 37 38
000
FTUS43 KGRB 230540 AAA
TAFATW
TAF AMD
KATW 230540Z 2306/2406 09008KT 6SM -FZDZ BR SCT012 OVC025
      WS020/16040KT
      TEMPO 2306/2309 3SM -FZRAPL BR BKN012
     FM230900 14008KT 3SM -FZRA BR OVC008 WS020/18035KT
     FM231100 18007KT 3SM -RA BR OVC006 WS020/23035KT
     FM231500 23009G16KT 5SM -DZ BR OVC007
     FM231700 27010KT P6SM BKN023=

USA.gov is the U.S. government's official web portal to all federal, state and local government web resources and services.